createdAt,value
2018-09-22T00:00:18.033Z,100031.00
2018-09-22T00:02:45.860Z,100038.00
2018-09-22T00:05:13.425Z,100038.00
2018-09-22T00:07:41.028Z,100037.00
2018-09-22T00:10:08.640Z,100040.00
2018-09-22T00:12:36.501Z,100041.00
2018-09-22T00:15:04.744Z,100041.00
2018-09-22T00:17:32.279Z,100040.00
2018-09-22T00:20:00.097Z,100047.00
2018-09-22T00:22:27.656Z,100042.00
2018-09-22T00:24:55.181Z,100046.00
2018-09-22T00:27:22.981Z,100045.00
2018-09-22T00:29:50.579Z,100044.00
2018-09-22T00:32:18.194Z,100054.00
2018-09-22T00:34:45.953Z,100051.00
2018-09-22T00:37:13.593Z,100048.00
2018-09-22T00:39:41.241Z,100045.00
2018-09-22T00:42:08.836Z,100051.00
2018-09-22T00:44:36.415Z,100048.00
2018-09-22T00:47:04.707Z,100050.00
2018-09-22T00:49:32.275Z,100057.00
2018-09-22T00:52:00.413Z,100063.00
2018-09-22T00:54:28.080Z,100057.00
2018-09-22T00:56:55.699Z,100056.00
2018-09-22T00:59:23.979Z,100065.00
2018-09-22T01:01:51.715Z,100070.00
2018-09-22T01:04:19.303Z,100074.00
2018-09-22T01:06:47.090Z,100079.00
2018-09-22T01:09:14.880Z,100090.00
2018-09-22T01:11:42.444Z,100095.00
2018-09-22T01:14:10.002Z,100098.00
2018-09-22T01:16:37.976Z,100090.00
2018-09-22T01:19:05.515Z,100091.00
2018-09-22T01:21:33.427Z,100091.00
2018-09-22T01:24:01.059Z,100100.00
2018-09-22T01:26:28.604Z,100093.00
2018-09-22T01:28:56.814Z,100092.00
2018-09-22T01:31:24.431Z,100096.00
2018-09-22T01:33:52.014Z,100098.00
2018-09-22T01:36:20.069Z,100105.00
2018-09-22T01:38:47.615Z,100111.00
2018-09-22T01:41:15.266Z,100111.00
2018-09-22T01:43:43.056Z,100115.00
2018-09-22T01:46:11.116Z,100118.00
2018-09-22T01:48:38.684Z,100115.00
2018-09-22T01:51:06.959Z,100113.00
2018-09-22T01:53:34.552Z,100123.00
2018-09-22T01:56:02.500Z,100121.00
2018-09-22T01:58:30.460Z,100118.00
2018-09-22T02:00:58.046Z,100127.00
2018-09-22T02:03:25.682Z,100136.00
2018-09-22T02:05:53.248Z,100124.00
2018-09-22T02:08:21.060Z,100122.00
2018-09-22T02:10:48.613Z,100130.00
2018-09-22T02:13:16.497Z,100126.00
2018-09-22T02:15:44.092Z,100131.00
2018-09-22T02:18:11.654Z,100128.00
2018-09-22T02:20:39.408Z,100132.00
2018-09-22T02:23:07.333Z,100136.00
2018-09-22T02:25:35.201Z,100130.00
2018-09-22T02:28:03.004Z,100145.00
2018-09-22T02:30:30.579Z,100150.00
2018-09-22T02:32:58.422Z,100155.00
2018-09-22T02:35:25.988Z,100153.00
2018-09-22T02:37:53.975Z,100153.00
2018-09-22T02:40:21.740Z,100158.00
2018-09-22T02:42:49.304Z,100154.00
2018-09-22T02:45:16.851Z,100149.00
2018-09-22T02:47:44.864Z,100158.00
2018-09-22T02:50:12.441Z,100150.00
2018-09-22T02:52:40.019Z,100167.00
2018-09-22T02:55:08.033Z,100168.00
2018-09-22T02:57:35.595Z,100170.00
2018-09-22T03:00:03.517Z,100169.00
2018-09-22T03:02:31.645Z,100172.00
2018-09-22T03:04:59.242Z,100181.00
2018-09-22T03:07:27.217Z,100176.00
2018-09-22T03:09:55.000Z,100177.00
2018-09-22T03:12:22.585Z,100192.00
2018-09-22T03:14:50.171Z,100194.00
2018-09-22T03:17:17.987Z,100198.00
2018-09-22T03:19:45.490Z,100202.00
2018-09-22T03:22:13.132Z,100207.00
2018-09-22T03:24:41.464Z,100209.00
2018-09-22T03:27:09.124Z,100218.00
2018-09-22T03:29:36.684Z,100209.00
2018-09-22T03:32:04.599Z,100202.00
2018-09-22T03:34:32.268Z,100209.00
2018-09-22T03:36:59.838Z,100207.00
2018-09-22T03:39:27.460Z,100209.00
2018-09-22T03:41:55.023Z,100215.00
2018-09-22T03:44:22.604Z,100209.00
2018-09-22T03:46:50.494Z,100218.00
2018-09-22T03:49:18.050Z,100216.00
2018-09-22T03:51:45.596Z,100200.00
2018-09-22T03:54:13.544Z,100216.00
2018-09-22T03:56:41.096Z,100212.00
2018-09-22T03:59:08.826Z,100211.00
2018-09-22T04:01:36.828Z,100210.00
2018-09-22T04:04:05.148Z,100207.00
2018-09-22T04:06:32.747Z,100211.00
2018-09-22T04:09:00.624Z,100215.00
2018-09-22T04:11:28.240Z,100216.00
2018-09-22T04:13:56.088Z,100212.00
2018-09-22T04:16:24.548Z,100206.00
2018-09-22T04:18:52.089Z,100215.00
2018-09-22T04:21:19.729Z,100211.00
2018-09-22T04:23:47.287Z,100211.00
2018-09-22T04:26:14.856Z,100214.00
2018-09-22T04:28:42.369Z,100216.00
2018-09-22T04:31:10.347Z,100213.00
2018-09-22T04:33:37.943Z,100222.00
2018-09-22T04:36:05.537Z,100225.00
2018-09-22T04:38:33.373Z,100229.00
2018-09-22T04:41:01.011Z,100236.00
2018-09-22T04:43:28.688Z,100241.00
2018-09-22T04:45:56.467Z,100245.00
2018-09-22T04:48:24.108Z,100246.00
2018-09-22T04:50:51.631Z,100246.00
2018-09-22T04:53:19.466Z,100255.00
2018-09-22T04:55:47.001Z,100253.00
2018-09-22T04:58:14.560Z,100246.00
2018-09-22T05:00:42.584Z,100253.00
2018-09-22T05:03:10.108Z,100258.00
2018-09-22T05:05:38.264Z,100266.00
2018-09-22T05:08:06.103Z,100264.00
2018-09-22T05:10:34.000Z,100274.00
2018-09-22T05:13:01.542Z,100265.00
2018-09-22T05:15:29.133Z,100275.00
2018-09-22T05:17:56.989Z,100273.00
2018-09-22T05:20:24.579Z,100272.00
2018-09-22T05:22:52.142Z,100278.00
2018-09-22T05:25:19.927Z,100279.00
2018-09-22T05:27:47.497Z,100279.00
2018-09-22T05:30:15.003Z,100268.00
2018-09-22T05:32:42.708Z,100283.00
2018-09-22T05:35:10.238Z,100287.00
2018-09-22T05:37:37.853Z,100295.00
2018-09-22T05:40:06.258Z,100294.00
2018-09-22T05:42:33.829Z,100296.00
2018-09-22T05:45:02.218Z,100299.00
2018-09-22T05:47:30.069Z,100297.00
2018-09-22T05:49:57.633Z,100298.00
2018-09-22T05:52:25.171Z,100300.00
2018-09-22T05:54:52.932Z,100299.00
2018-09-22T05:57:20.291Z,100300.00
2018-09-22T05:59:48.314Z,100303.00
2018-09-22T06:02:15.847Z,100300.00
2018-09-22T06:04:43.239Z,100299.00
2018-09-22T06:07:10.916Z,100302.00
2018-09-22T06:09:38.591Z,100302.00
2018-09-22T06:12:06.030Z,100316.00
2018-09-22T06:14:33.826Z,100304.00
2018-09-22T06:17:01.469Z,100308.00
2018-09-22T06:19:29.047Z,100318.00
2018-09-22T06:21:56.956Z,100312.00
2018-09-22T06:24:24.508Z,100317.00
2018-09-22T06:26:52.773Z,100323.00
2018-09-22T06:29:20.419Z,100330.00
2018-09-22T06:31:48.269Z,100325.00
2018-09-22T06:34:16.118Z,100334.00
2018-09-22T06:36:43.624Z,100323.00
2018-09-22T06:39:11.770Z,100334.00
2018-09-22T06:41:45.758Z,100337.00
2018-09-22T06:44:49.692Z,100337.00
2018-09-22T06:47:32.136Z,100350.00
2018-09-22T06:49:59.755Z,100348.00
2018-09-22T06:52:27.299Z,100352.00
2018-09-22T06:54:55.223Z,100359.00
2018-09-22T06:57:22.747Z,100367.00
2018-09-22T06:59:50.393Z,100355.00
2018-09-22T07:02:18.255Z,100367.00
2018-09-22T07:04:46.588Z,100364.00
2018-09-22T07:07:14.623Z,100360.00
2018-09-22T07:09:42.362Z,100363.00
2018-09-22T07:12:09.892Z,100359.00
2018-09-22T07:14:37.412Z,100360.00
2018-09-22T07:17:05.369Z,100360.00
2018-09-22T07:19:33.020Z,100356.00
2018-09-22T07:22:06.634Z,100359.00
2018-09-22T07:24:34.152Z,100354.00
2018-09-22T07:27:01.705Z,100341.00
2018-09-22T07:29:29.545Z,100361.00
2018-09-22T07:31:57.099Z,100361.00
2018-09-22T07:34:24.707Z,100364.00
2018-09-22T07:36:52.756Z,100356.00
2018-09-22T07:39:20.345Z,100356.00
2018-09-22T07:41:47.903Z,100353.00
2018-09-22T07:44:15.872Z,100369.00
2018-09-22T07:46:43.489Z,100377.00
2018-09-22T07:49:11.054Z,100380.00
2018-09-22T07:51:38.730Z,100373.00
2018-09-22T07:54:06.415Z,100375.00
2018-09-22T07:56:33.983Z,100382.00
2018-09-22T07:59:01.581Z,100384.00
2018-09-22T08:01:29.181Z,100382.00
2018-09-22T08:03:56.828Z,100392.00
2018-09-22T08:06:24.761Z,100372.00
2018-09-22T08:08:53.080Z,100386.00
2018-09-22T08:11:20.947Z,100389.00
2018-09-22T08:13:48.556Z,100377.00
2018-09-22T08:16:16.193Z,100385.00
2018-09-22T08:18:43.811Z,100376.00
2018-09-22T08:21:11.599Z,100383.00
2018-09-22T08:23:39.368Z,100390.00
2018-09-22T08:26:07.539Z,100370.00
2018-09-22T08:28:35.343Z,100387.00
2018-09-22T08:31:02.939Z,100380.00
2018-09-22T08:33:30.505Z,100381.00
2018-09-22T08:35:58.415Z,100386.00
2018-09-22T08:38:25.942Z,100377.00
2018-09-22T08:40:53.444Z,100374.00
2018-09-22T08:43:21.200Z,100387.00
2018-09-22T08:45:48.972Z,100377.00
2018-09-22T08:48:16.596Z,100376.00
2018-09-22T08:50:44.253Z,100376.00
2018-09-22T08:53:11.776Z,100377.00
2018-09-22T08:55:39.342Z,100374.00
2018-09-22T08:58:07.203Z,100362.00
2018-09-22T09:00:34.855Z,100368.00
2018-09-22T09:03:02.417Z,100378.00
2018-09-22T09:05:30.627Z,100377.00
2018-09-22T09:07:58.160Z,100374.00
2018-09-22T09:10:25.747Z,100382.00
2018-09-22T09:12:53.565Z,100377.00
2018-09-22T09:15:21.131Z,100375.00
2018-09-22T09:17:48.755Z,100377.00
2018-09-22T09:20:16.358Z,100377.00
2018-09-22T09:22:43.887Z,100368.00
2018-09-22T09:25:11.746Z,100375.00
2018-09-22T09:27:39.407Z,100356.00
2018-09-22T09:30:07.269Z,100355.00
2018-09-22T09:32:35.137Z,100361.00
2018-09-22T09:35:02.690Z,100369.00
2018-09-22T09:37:30.319Z,100370.00
2018-09-22T09:39:57.927Z,100360.00
2018-09-22T09:42:25.508Z,100381.00
2018-09-22T09:44:53.301Z,100375.00
2018-09-22T09:47:21.232Z,100374.00
2018-09-22T09:49:48.981Z,100387.00
2018-09-22T09:52:16.744Z,100386.00
2018-09-22T09:54:44.764Z,100386.00
2018-09-22T09:57:12.279Z,100383.00
2018-09-22T09:59:39.828Z,100371.00
2018-09-22T10:02:07.693Z,100382.00
2018-09-22T10:04:35.361Z,100380.00
2018-09-22T10:07:03.299Z,100374.00
2018-09-22T10:09:30.853Z,100373.00
2018-09-22T10:11:58.430Z,100381.00
2018-09-22T10:14:26.097Z,100379.00
2018-09-22T10:16:53.788Z,100384.00
2018-09-22T10:19:22.079Z,100387.00
2018-09-22T10:21:49.895Z,100384.00
2018-09-22T10:24:21.823Z,100377.00
2018-09-22T10:26:50.026Z,100373.00
2018-09-22T10:29:17.556Z,100372.00
2018-09-22T10:31:46.084Z,100375.00
2018-09-22T10:34:21.280Z,100366.00
2018-09-22T10:36:54.476Z,100357.00
2018-09-22T10:39:22.555Z,100372.00
2018-09-22T10:41:53.623Z,100371.00
2018-09-22T10:44:21.176Z,100373.00
2018-09-22T10:46:49.328Z,100363.00
2018-09-22T10:49:16.937Z,100374.00
2018-09-22T10:51:44.544Z,100368.00
2018-09-22T10:54:12.438Z,100362.00
2018-09-22T10:56:40.089Z,100364.00
2018-09-22T10:59:07.639Z,100364.00
2018-09-22T11:01:35.248Z,100361.00
2018-09-22T11:04:02.844Z,100354.00
2018-09-22T11:06:30.440Z,100361.00
2018-09-22T11:08:58.251Z,100359.00
2018-09-22T11:11:25.849Z,100346.00
2018-09-22T11:13:53.731Z,100351.00
2018-09-22T11:16:21.328Z,100349.00
2018-09-22T11:18:48.925Z,100348.00
2018-09-22T11:21:16.476Z,100355.00
2018-09-22T11:23:44.236Z,100353.00
2018-09-22T11:26:11.877Z,100348.00
2018-09-22T11:28:39.764Z,100339.00
2018-09-22T11:31:07.712Z,100349.00
2018-09-22T11:33:34.989Z,100343.00
2018-09-22T11:36:03.085Z,100338.00
2018-09-22T11:38:30.743Z,100339.00
2018-09-22T11:40:58.196Z,100337.00
2018-09-22T11:43:25.993Z,100339.00
2018-09-22T11:45:53.563Z,100336.00
2018-09-22T11:48:21.161Z,100338.00
2018-09-22T11:50:49.314Z,100335.00
2018-09-22T11:53:16.912Z,100338.00
2018-09-22T11:55:44.493Z,100346.00
2018-09-22T11:58:12.386Z,100355.00
2018-09-22T12:00:40.660Z,100334.00
2018-09-22T12:03:08.213Z,100340.00
2018-09-22T12:05:35.859Z,100341.00
2018-09-22T12:08:03.420Z,100319.00
2018-09-22T12:10:30.984Z,100324.00
2018-09-22T12:12:58.703Z,100332.00
2018-09-22T12:15:26.264Z,100339.00
2018-09-22T12:17:53.792Z,100333.00
2018-09-22T12:20:21.692Z,100328.00
2018-09-22T12:22:49.303Z,100324.00
2018-09-22T12:25:16.943Z,100331.00
2018-09-22T12:27:44.541Z,100329.00
2018-09-22T12:30:12.124Z,100327.00
2018-09-22T12:32:40.057Z,100336.00
2018-09-22T12:35:07.981Z,100340.00
2018-09-22T12:37:35.531Z,100332.00
2018-09-22T12:40:03.636Z,100317.00
2018-09-22T12:42:32.892Z,100318.00
2018-09-22T12:45:00.448Z,100317.00
2018-09-22T12:47:28.410Z,100310.00
2018-09-22T12:49:55.976Z,100323.00
2018-09-22T12:52:23.515Z,100322.00
2018-09-22T12:54:51.423Z,100311.00
2018-09-22T12:57:19.115Z,100316.00
2018-09-22T12:59:46.696Z,100313.00
2018-09-22T13:02:14.527Z,100308.00
2018-09-22T13:04:42.030Z,100327.00
2018-09-22T13:07:09.784Z,100324.00
2018-09-22T13:09:37.311Z,100320.00
2018-09-22T13:12:05.288Z,100323.00
2018-09-22T13:14:32.840Z,100316.00
2018-09-22T13:17:00.404Z,100316.00
2018-09-22T13:19:27.988Z,100316.00
2018-09-22T13:21:55.540Z,100305.00
2018-09-22T13:24:24.136Z,100302.00
2018-09-22T13:26:54.818Z,100294.00
2018-09-22T13:29:22.402Z,100295.00
2018-09-22T13:31:50.167Z,100288.00
2018-09-22T13:34:17.542Z,100285.00
2018-09-22T13:36:45.120Z,100296.00
2018-09-22T13:39:13.100Z,100288.00
2018-09-22T13:41:41.120Z,100278.00
2018-09-22T13:44:08.942Z,100276.00
2018-09-22T13:46:36.738Z,100286.00
2018-09-22T13:49:04.369Z,100282.00
2018-09-22T13:51:31.925Z,100281.00
2018-09-22T13:53:59.532Z,100293.00
2018-09-22T13:56:27.040Z,100296.00
2018-09-22T13:58:54.658Z,100288.00
2018-09-22T14:01:22.536Z,100301.00
2018-09-22T14:03:50.124Z,100302.00
2018-09-22T14:06:17.633Z,100302.00
2018-09-22T14:08:46.382Z,100298.00
2018-09-22T14:11:13.940Z,100287.00
2018-09-22T14:13:41.487Z,100269.00
2018-09-22T14:16:21.438Z,100278.00
2018-09-22T14:18:59.339Z,100275.00
2018-09-22T14:21:27.085Z,100272.00
2018-09-22T14:23:54.637Z,100268.00
2018-09-22T14:26:45.080Z,100273.00
2018-09-22T14:29:20.029Z,100250.00
2018-09-22T14:32:13.262Z,100258.00
2018-09-22T14:34:41.183Z,100255.00
2018-09-22T14:37:08.854Z,100245.00
2018-09-22T14:39:36.446Z,100251.00
2018-09-22T14:42:08.600Z,100250.00
2018-09-22T14:44:36.183Z,100243.00
2018-09-22T14:47:03.728Z,100236.00
2018-09-22T14:49:31.584Z,100231.00
2018-09-22T14:51:59.235Z,100236.00
2018-09-22T14:54:27.304Z,100249.00
2018-09-22T14:56:54.932Z,100262.00
2018-09-22T14:59:22.607Z,100260.00
2018-09-22T15:01:50.416Z,100263.00
2018-09-22T15:04:17.994Z,100262.00
2018-09-22T15:06:45.544Z,100261.00
2018-09-22T15:09:15.003Z,100249.00
2018-09-22T15:11:42.643Z,100233.00
2018-09-22T15:14:10.363Z,100229.00
2018-09-22T15:16:37.960Z,100232.00
2018-09-22T15:19:05.921Z,100231.00
2018-09-22T15:21:33.869Z,100227.00
2018-09-22T15:24:01.479Z,100228.00
2018-09-22T15:26:29.121Z,100225.00
2018-09-22T15:28:57.297Z,100220.00
2018-09-22T15:31:24.881Z,100214.00
2018-09-22T15:33:52.420Z,100210.00
2018-09-22T15:36:20.088Z,100214.00
2018-09-22T15:38:47.665Z,100205.00
2018-09-22T15:41:15.189Z,100208.00
2018-09-22T15:43:42.932Z,100203.00
2018-09-22T15:46:10.476Z,100199.00
2018-09-22T15:48:38.055Z,100188.00
2018-09-22T15:51:05.952Z,100184.00
2018-09-22T15:53:33.811Z,100184.00
2018-09-22T15:56:01.469Z,100188.00
2018-09-22T15:58:29.675Z,100191.00
2018-09-22T16:00:57.342Z,100197.00
2018-09-22T16:03:24.892Z,100187.00
2018-09-22T16:05:52.667Z,100183.00
2018-09-22T16:08:20.287Z,100181.00
2018-09-22T16:10:47.815Z,100182.00
2018-09-22T16:13:15.675Z,100175.00
2018-09-22T16:15:43.240Z,100169.00
2018-09-22T16:18:10.804Z,100174.00
2018-09-22T16:20:38.878Z,100170.00
2018-09-22T16:23:07.303Z,100170.00
2018-09-22T16:25:45.009Z,100166.00
2018-09-22T16:30:41.407Z,100172.00
2018-09-22T16:33:13.509Z,100181.00
2018-09-22T16:35:41.644Z,100173.00
2018-09-22T16:38:09.251Z,100169.00
2018-09-22T16:40:37.752Z,100179.00
2018-09-22T16:43:05.657Z,100183.00
2018-09-22T16:45:33.741Z,100195.00
2018-09-22T16:48:02.049Z,100198.00
2018-09-22T16:50:29.712Z,100184.00
2018-09-22T16:52:57.282Z,100178.00
2018-09-22T16:55:24.895Z,100169.00
2018-09-22T16:57:52.812Z,100176.00
2018-09-22T17:00:20.434Z,100181.00
2018-09-22T17:02:47.994Z,100185.00
2018-09-22T17:05:15.940Z,100180.00
2018-09-22T17:07:43.500Z,100187.00
2018-09-22T17:10:11.070Z,100181.00
2018-09-22T17:12:39.048Z,100175.00
2018-09-22T17:15:06.639Z,100172.00
2018-09-22T17:17:34.248Z,100171.00
2018-09-22T17:20:02.445Z,100176.00
2018-09-22T17:22:30.009Z,100164.00
2018-09-22T17:24:57.565Z,100163.00
2018-09-22T17:27:25.502Z,100161.00
2018-09-22T17:29:53.052Z,100156.00
2018-09-22T17:32:20.763Z,100164.00
2018-09-22T17:34:48.651Z,100163.00
2018-09-22T17:37:16.583Z,100171.00
2018-09-22T17:39:44.104Z,100169.00
2018-09-22T17:42:11.951Z,100175.00
2018-09-22T17:44:40.034Z,100167.00
2018-09-22T17:47:07.547Z,100173.00
2018-09-22T17:49:35.395Z,100176.00
2018-09-22T17:52:02.937Z,100176.00
2018-09-22T17:54:30.485Z,100176.00
2018-09-22T17:56:58.620Z,100176.00
2018-09-22T17:59:26.220Z,100170.00
2018-09-22T18:01:53.752Z,100168.00
2018-09-22T18:04:21.310Z,100168.00
2018-09-22T18:06:48.857Z,100160.00
2018-09-22T18:09:16.619Z,100164.00
2018-09-22T18:11:44.188Z,100164.00
2018-09-22T18:14:11.792Z,100168.00
2018-09-22T18:16:39.518Z,100169.00
2018-09-22T18:19:07.007Z,100168.00
2018-09-22T18:21:34.628Z,100165.00
2018-09-22T18:24:02.417Z,100161.00
2018-09-22T18:26:30.004Z,100174.00
2018-09-22T18:28:57.532Z,100178.00
2018-09-22T18:31:25.778Z,100172.00
2018-09-22T18:33:53.404Z,100167.00
2018-09-22T18:36:21.085Z,100165.00
2018-09-22T18:38:49.155Z,100179.00
2018-09-22T18:41:16.729Z,100181.00
2018-09-22T18:43:44.978Z,100192.00
2018-09-22T18:46:12.755Z,100199.00
2018-09-22T18:48:40.388Z,100186.00
2018-09-22T18:51:07.911Z,100174.00
2018-09-22T18:53:35.949Z,100177.00
2018-09-22T18:56:03.567Z,100177.00
2018-09-22T18:58:31.196Z,100170.00
2018-09-22T19:00:59.369Z,100162.00
2018-09-22T19:03:26.922Z,100166.00
2018-09-22T19:05:54.506Z,100162.00
2018-09-22T19:08:24.266Z,100170.00
2018-09-22T19:10:52.000Z,100169.00
2018-09-22T19:13:26.177Z,100155.00
2018-09-22T19:16:21.038Z,100147.00
2018-09-22T19:18:59.070Z,100156.00
2018-09-22T19:21:34.532Z,100168.00
2018-09-22T19:24:06.386Z,100164.00
2018-09-22T19:26:37.888Z,100165.00
2018-09-22T19:29:13.021Z,100168.00
2018-09-22T19:31:46.269Z,100173.00
2018-09-22T19:34:17.287Z,100167.00
2018-09-22T19:36:49.899Z,100171.00
2018-09-22T19:39:23.802Z,100172.00
2018-09-22T19:41:55.375Z,100168.00
2018-09-22T19:44:35.773Z,100168.00
2018-09-22T19:47:07.221Z,100158.00
2018-09-22T19:49:43.725Z,100165.00
2018-09-22T19:52:14.970Z,100167.00
2018-09-22T19:54:43.529Z,100161.00
2018-09-22T19:57:11.129Z,100155.00
2018-09-22T19:59:38.974Z,100151.00
2018-09-22T20:02:06.545Z,100153.00
2018-09-22T20:04:34.135Z,100149.00
2018-09-22T20:07:01.550Z,100152.00
2018-09-22T20:09:29.946Z,100160.00
2018-09-22T20:11:57.624Z,100158.00
2018-09-22T20:14:25.452Z,100166.00
2018-09-22T20:16:53.035Z,100159.00
2018-09-22T20:19:20.641Z,100156.00
2018-09-22T20:21:48.434Z,100161.00
2018-09-22T20:24:16.082Z,100166.00
2018-09-22T20:26:43.696Z,100174.00
2018-09-22T20:29:11.545Z,100177.00
2018-09-22T20:31:39.136Z,100160.00
2018-09-22T20:34:07.100Z,100159.00
2018-09-22T20:36:34.691Z,100160.00
2018-09-22T20:39:02.389Z,100156.00
2018-09-22T20:41:30.215Z,100145.00
2018-09-22T20:43:58.520Z,100136.00
2018-09-22T20:46:26.093Z,100140.00
2018-09-22T20:48:53.622Z,100146.00
2018-09-22T20:51:21.460Z,100148.00
2018-09-22T20:53:49.651Z,100147.00
2018-09-22T20:56:17.314Z,100160.00
2018-09-22T20:58:45.293Z,100161.00
2018-09-22T21:01:12.877Z,100166.00
2018-09-22T21:03:40.653Z,100163.00
2018-09-22T21:06:08.696Z,100168.00
2018-09-22T21:08:36.448Z,100168.00
2018-09-22T21:11:03.805Z,100171.00
2018-09-22T21:13:31.699Z,100169.00
2018-09-22T21:15:59.284Z,100171.00
2018-09-22T21:18:26.924Z,100174.00
2018-09-22T21:20:54.484Z,100181.00
2018-09-22T21:23:22.023Z,100167.00
2018-09-22T21:25:49.588Z,100160.00
2018-09-22T21:28:17.155Z,100162.00
2018-09-22T21:30:44.836Z,100163.00
2018-09-22T21:33:12.689Z,100163.00
2018-09-22T21:35:40.844Z,100165.00
2018-09-22T21:38:08.664Z,100161.00
2018-09-22T21:40:36.288Z,100168.00
2018-09-22T21:43:04.230Z,100165.00
2018-09-22T21:45:31.818Z,100169.00
2018-09-22T21:47:59.808Z,100164.00
2018-09-22T21:50:27.344Z,100158.00
2018-09-22T21:52:54.900Z,100164.00
2018-09-22T21:55:22.970Z,100155.00
2018-09-22T21:57:50.509Z,100157.00
2018-09-22T22:00:18.105Z,100163.00
2018-09-22T22:02:45.819Z,100155.00
2018-09-22T22:05:13.408Z,100143.00
2018-09-22T22:07:40.998Z,100147.00
2018-09-22T22:10:08.883Z,100142.00
2018-09-22T22:12:36.508Z,100143.00
2018-09-22T22:15:04.206Z,100141.00
2018-09-22T22:17:31.783Z,100147.00
2018-09-22T22:19:59.344Z,100144.00
2018-09-22T22:22:26.913Z,100153.00
2018-09-22T22:24:54.512Z,100156.00
2018-09-22T22:27:22.122Z,100156.00
2018-09-22T22:29:49.680Z,100162.00
2018-09-22T22:32:17.767Z,100158.00
2018-09-22T22:34:45.380Z,100166.00
2018-09-22T22:37:12.991Z,100157.00
2018-09-22T22:39:40.978Z,100154.00
2018-09-22T22:42:08.511Z,100162.00
2018-09-22T22:44:35.985Z,100182.00
2018-09-22T22:47:04.192Z,100176.00
2018-09-22T22:49:31.798Z,100170.00
2018-09-22T22:51:59.204Z,100175.00
2018-09-22T22:54:27.124Z,100170.00
2018-09-22T22:56:54.676Z,100182.00
2018-09-22T22:59:22.234Z,100176.00
2018-09-22T23:01:49.856Z,100166.00
2018-09-22T23:04:17.540Z,100173.00
2018-09-22T23:06:45.136Z,100176.00
2018-09-22T23:09:13.100Z,100193.00
2018-09-22T23:11:40.651Z,100196.00
2018-09-22T23:14:08.189Z,100203.00
2018-09-22T23:16:36.139Z,100200.00
2018-09-22T23:19:08.324Z,100211.00
2018-09-22T23:21:36.240Z,100207.00
2018-09-22T23:24:35.016Z,100206.00
2018-09-22T23:27:02.781Z,100206.00
2018-09-22T23:29:30.360Z,100203.00
2018-09-22T23:31:57.908Z,100204.00
2018-09-22T23:34:25.783Z,100204.00
2018-09-22T23:36:53.329Z,100199.00
2018-09-22T23:39:20.908Z,100198.00
2018-09-22T23:41:48.601Z,100200.00
2018-09-22T23:44:16.232Z,100201.00
2018-09-22T23:46:44.144Z,100195.00
2018-09-22T23:49:11.684Z,100193.00
2018-09-22T23:51:39.473Z,100204.00
2018-09-22T23:54:06.816Z,100202.00
2018-09-22T23:56:34.427Z,100196.00
2018-09-22T23:59:02.366Z,100199.00
